sensor_id;sensor_type;location;lat;lon;timestamp;pressure;altitude;pressure_sealevel;temperature;humidity
7962;BME280;4026;43.652;24.906;2022-11-11T00:02:07;100269.47;;;9.02;100.00
7962;BME280;4026;43.652;24.906;2022-11-11T00:04:34;100270.34;;;9.01;100.00
7962;BME280;4026;43.652;24.906;2022-11-11T00:07:02;100270.34;;;9.01;100.00
7962;BME280;4026;43.652;24.906;2022-11-11T00:09:28;100271.25;;;9.00;99.87
7962;BME280;4026;43.652;24.906;2022-11-11T00:11:55;100268.91;;;8.95;99.95
7962;BME280;4026;43.652;24.906;2022-11-11T00:14:23;100276.50;;;8.97;100.00
7962;BME280;4026;43.652;24.906;2022-11-11T00:16:50;100274.72;;;8.99;100.00
7962;BME280;4026;43.652;24.906;2022-11-11T00:19:34;100276.50;;;8.97;100.00
7962;BME280;4026;43.652;24.906;2022-11-11T00:22:19;100271.41;;;8.97;100.00
7962;BME280;4026;43.652;24.906;2022-11-11T00:25:04;100267.94;;;8.98;100.00
7962;BME280;4026;43.652;24.906;2022-11-11T00:27:34;100265.47;;;8.96;100.00
7962;BME280;4026;43.652;24.906;2022-11-11T00:30:03;100266.16;;;9.00;100.00
7962;BME280;4026;43.652;24.906;2022-11-11T00:32:31;100265.25;;;9.01;100.00
7962;BME280;4026;43.652;24.906;2022-11-11T00:34:58;100263.38;;;9.04;100.00
7962;BME280;4026;43.652;24.906;2022-11-11T00:37:45;100254.84;;;9.05;100.00
7962;BME280;4026;43.652;24.906;2022-11-11T00:40:13;100260.09;;;9.02;100.00
7962;BME280;4026;43.652;24.906;2022-11-11T00:42:40;100250.84;;;9.00;100.00
7962;BME280;4026;43.652;24.906;2022-11-11T00:45:10;100254.31;;;8.99;100.00
7962;BME280;4026;43.652;24.906;2022-11-11T00:47:37;100250.69;;;9.03;100.00
7962;BME280;4026;43.652;24.906;2022-11-11T00:50:23;100244.22;;;8.96;100.00
7962;BME280;4026;43.652;24.906;2022-11-11T00:53:09;100248.28;;;9.00;100.00
7962;BME280;4026;43.652;24.906;2022-11-11T00:55:36;100240.84;;;8.95;100.00
7962;BME280;4026;43.652;24.906;2022-11-11T00:58:03;100234.00;;;8.96;100.00
7962;BME280;4026;43.652;24.906;2022-11-11T01:00:31;100245.88;;;8.97;100.00
7962;BME280;4026;43.652;24.906;2022-11-11T01:02:58;100242.44;;;8.98;100.00
7962;BME280;4026;43.652;24.906;2022-11-11T01:05:25;100242.56;;;8.95;100.00
7962;BME280;4026;43.652;24.906;2022-11-11T01:07:52;100235.84;;;8.94;100.00
7962;BME280;4026;43.652;24.906;2022-11-11T01:10:21;100239.25;;;8.93;100.00
7962;BME280;4026;43.652;24.906;2022-11-11T01:13:14;100231.75;;;8.90;100.00
7962;BME280;4026;43.652;24.906;2022-11-11T01:15:44;100231.03;;;8.88;100.00
7962;BME280;4026;43.652;24.906;2022-11-11T01:18:13;100234.44;;;8.87;100.00
7962;BME280;4026;43.652;24.906;2022-11-11T01:20:41;100234.44;;;8.87;100.00
7962;BME280;4026;43.652;24.906;2022-11-11T01:23:09;100229.06;;;8.93;100.00
7962;BME280;4026;43.652;24.906;2022-11-11T01:25:38;100226.06;;;8.84;100.00
7962;BME280;4026;43.652;24.906;2022-11-11T01:28:05;100228.63;;;8.84;100.00
7962;BME280;4026;43.652;24.906;2022-11-11T01:30:34;100232.13;;;8.82;100.00
7962;BME280;4026;43.652;24.906;2022-11-11T01:33:03;100226.22;;;8.81;100.00
7962;BME280;4026;43.652;24.906;2022-11-11T01:35:29;100228.00;;;8.79;100.00
7962;BME280;4026;43.652;24.906;2022-11-11T01:37:56;100228.75;;;8.81;100.00
7962;BME280;4026;43.652;24.906;2022-11-11T01:40:23;100228.00;;;8.79;100.00
7962;BME280;4026;43.652;24.906;2022-11-11T01:42:52;100222.75;;;8.82;100.00
7962;BME280;4026;43.652;24.906;2022-11-11T01:45:54;100222.97;;;8.78;100.00
7962;BME280;4026;43.652;24.906;2022-11-11T01:48:28;100218.75;;;8.77;100.00
7962;BME280;4026;43.652;24.906;2022-11-11T01:51:18;100220.78;;;8.70;100.00
7962;BME280;4026;43.652;24.906;2022-11-11T01:53:49;100221.81;;;8.66;100.00
7962;BME280;4026;43.652;24.906;2022-11-11T01:56:18;100216.69;;;8.66;100.00
7962;BME280;4026;43.652;24.906;2022-11-11T01:58:46;100222.03;;;8.61;100.00
7962;BME280;4026;43.652;24.906;2022-11-11T02:01:13;100224.50;;;8.63;100.00
7962;BME280;4026;43.652;24.906;2022-11-11T02:03:42;100222.63;;;8.67;100.00
7962;BME280;4026;43.652;24.906;2022-11-11T02:06:31;100228.72;;;8.64;100.00
7962;BME280;4026;43.652;24.906;2022-11-11T02:08:57;100226.91;;;8.66;100.00
7962;BME280;4026;43.652;24.906;2022-11-11T02:11:25;100227.19;;;8.60;100.00
7962;BME280;4026;43.652;24.906;2022-11-11T02:14:10;100223.75;;;8.61;100.00
7962;BME280;4026;43.652;24.906;2022-11-11T02:16:51;100230.34;;;8.65;100.00
7962;BME280;4026;43.652;24.906;2022-11-11T02:19:24;100223.63;;;8.64;100.00
7962;BME280;4026;43.652;24.906;2022-11-11T02:21:57;100223.75;;;8.61;100.00
7962;BME280;4026;43.652;24.906;2022-11-11T02:24:26;100217.00;;;8.60;100.00
7962;BME280;4026;43.652;24.906;2022-11-11T02:26:54;100218.78;;;8.58;100.00
7962;BME280;4026;43.652;24.906;2022-11-11T02:29:22;100228.97;;;8.58;100.00
7962;BME280;4026;43.652;24.906;2022-11-11T02:31:50;100225.69;;;8.56;100.00
7962;BME280;4026;43.652;24.906;2022-11-11T02:34:16;100234.06;;;8.58;100.00
7962;BME280;4026;43.652;24.906;2022-11-11T02:36:43;100229.97;;;8.55;100.00
7962;BME280;4026;43.652;24.906;2022-11-11T02:39:10;100228.91;;;8.59;100.00
7962;BME280;4026;43.652;24.906;2022-11-11T02:41:38;100226.41;;;8.58;100.00
7962;BME280;4026;43.652;24.906;2022-11-11T02:44:21;100232.28;;;8.60;100.00
7962;BME280;4026;43.652;24.906;2022-11-11T02:46:48;100239.06;;;8.61;100.00
7962;BME280;4026;43.652;24.906;2022-11-11T02:49:15;100235.59;;;8.62;100.00
7962;BME280;4026;43.652;24.906;2022-11-11T02:51:41;100236.81;;;8.72;100.00
7962;BME280;4026;43.652;24.906;2022-11-11T02:54:08;100238.19;;;8.79;100.00
7962;BME280;4026;43.652;24.906;2022-11-11T02:56:35;100243.16;;;8.82;100.00
7962;BME280;4026;43.652;24.906;2022-11-11T02:59:21;100237.75;;;8.89;100.00
7962;BME280;4026;43.652;24.906;2022-11-11T03:01:47;100239.25;;;8.93;100.00
7962;BME280;4026;43.652;24.906;2022-11-11T03:04:14;100232.53;;;8.92;100.00
7962;BME280;4026;43.652;24.906;2022-11-11T03:06:41;100234.16;;;8.93;100.00
7962;BME280;4026;43.652;24.906;2022-11-11T03:09:07;100237.47;;;8.95;100.00
7962;BME280;4026;43.652;24.906;2022-11-11T03:11:34;100235.53;;;9.00;100.00
7962;BME280;4026;43.652;24.906;2022-11-11T03:14:03;100237.03;;;9.04;100.00
7962;BME280;4026;43.652;24.906;2022-11-11T03:16:31;100226.00;;;9.03;100.00
7962;BME280;4026;43.652;24.906;2022-11-11T03:19:16;100235.25;;;9.06;100.00
7962;BME280;4026;43.652;24.906;2022-11-11T03:21:42;100240.19;;;9.09;100.00
7962;BME280;4026;43.652;24.906;2022-11-11T03:24:08;100232.41;;;9.12;100.00
7962;BME280;4026;43.652;24.906;2022-11-11T03:26:35;100231.38;;;9.16;100.00
7962;BME280;4026;43.652;24.906;2022-11-11T03:29:03;100228.72;;;9.18;100.00
7962;BME280;4026;43.652;24.906;2022-11-11T03:31:31;100226.03;;;9.21;100.00
7962;BME280;4026;43.652;24.906;2022-11-11T03:33:58;100237.16;;;9.20;100.00
7962;BME280;4026;43.652;24.906;2022-11-11T03:36:43;100235.31;;;9.22;100.00
7962;BME280;4026;43.652;24.906;2022-11-11T03:39:27;100237.00;;;9.23;100.00
7962;BME280;4026;43.652;24.906;2022-11-11T03:41:54;100236.75;;;9.27;100.00
7962;BME280;4026;43.652;24.906;2022-11-11T03:44:21;100232.34;;;9.31;100.00
7962;BME280;4026;43.652;24.906;2022-11-11T03:46:49;100237.22;;;9.36;100.00
7962;BME280;4026;43.652;24.906;2022-11-11T03:49:16;100240.38;;;9.41;100.00
7962;BME280;4026;43.652;24.906;2022-11-11T03:51:42;100241.88;;;9.45;100.00
7962;BME280;4026;43.652;24.906;2022-11-11T03:54:09;100240.22;;;9.44;100.00
7962;BME280;4026;43.652;24.906;2022-11-11T03:56:36;100240.22;;;9.44;100.00
7962;BME280;4026;43.652;24.906;2022-11-11T03:59:03;100241.88;;;9.45;100.00
7962;BME280;4026;43.652;24.906;2022-11-11T04:01:29;100230.53;;;9.50;100.00
7962;BME280;4026;43.652;24.906;2022-11-11T04:04:29;100233.03;;;9.52;100.00
7962;BME280;4026;43.652;24.906;2022-11-11T04:07:14;100228.88;;;9.49;100.00
7962;BME280;4026;43.652;24.906;2022-11-11T04:09:58;100234.31;;;9.43;100.00
7962;BME280;4026;43.652;24.906;2022-11-11T04:12:42;100231.66;;;9.45;100.00
7962;BME280;4026;43.652;24.906;2022-11-11T04:15:27;100233.31;;;9.46;100.00
7962;BME280;4026;43.652;24.906;2022-11-11T04:18:10;100237.97;;;9.38;100.00
7962;BME280;4026;43.652;24.906;2022-11-11T04:20:41;100240.00;;;9.48;100.00
7962;BME280;4026;43.652;24.906;2022-11-11T04:23:25;100241.66;;;9.49;100.00
7962;BME280;4026;43.652;24.906;2022-11-11T04:25:52;100238.28;;;9.49;100.00
7962;BME280;4026;43.652;24.906;2022-11-11T04:28:19;100242.31;;;9.53;100.00
7962;BME280;4026;43.652;24.906;2022-11-11T04:31:04;100242.25;;;9.55;100.00
7962;BME280;4026;43.652;24.906;2022-11-11T04:33:31;100245.03;;;9.50;100.00
7962;BME280;4026;43.652;24.906;2022-11-11T04:35:58;100240.91;;;9.47;100.00
7962;BME280;4026;43.652;24.906;2022-11-11T04:38:25;100238.59;;;9.43;100.00
7962;BME280;4026;43.652;24.906;2022-11-11T04:41:09;100241.88;;;9.45;100.00
7962;BME280;4026;43.652;24.906;2022-11-11T04:43:37;100247.13;;;9.42;100.00
7962;BME280;4026;43.652;24.906;2022-11-11T04:46:17;100246.81;;;9.48;100.00
7962;BME280;4026;43.652;24.906;2022-11-11T04:48:44;100251.78;;;9.51;100.00
7962;BME280;4026;43.652;24.906;2022-11-11T04:51:12;100249.09;;;9.54;100.00
7962;BME280;4026;43.652;24.906;2022-11-11T04:53:39;100258.69;;;9.49;100.00
7962;BME280;4026;43.652;24.906;2022-11-11T04:56:07;100261.97;;;9.51;100.00
7962;BME280;4026;43.652;24.906;2022-11-11T04:58:51;100271.94;;;9.57;100.00
7962;BME280;4026;43.652;24.906;2022-11-11T05:01:38;100273.88;;;9.52;100.00
7962;BME280;4026;43.652;24.906;2022-11-11T05:04:22;100266.97;;;9.54;100.00
7962;BME280;4026;43.652;24.906;2022-11-11T05:06:50;100280.31;;;9.59;100.00
7962;BME280;4026;43.652;24.906;2022-11-11T05:09:34;100285.56;;;9.56;100.00
7962;BME280;4026;43.652;24.906;2022-11-11T05:12:01;100283.03;;;9.56;100.00
7962;BME280;4026;43.652;24.906;2022-11-11T05:14:28;100284.59;;;9.59;100.00
7962;BME280;4026;43.652;24.906;2022-11-11T05:17:12;100287.09;;;9.60;100.00
7962;BME280;4026;43.652;24.906;2022-11-11T05:19:57;100288.72;;;9.61;100.00
7962;BME280;4026;43.652;24.906;2022-11-11T05:22:42;100290.38;;;9.62;100.00
7962;BME280;4026;43.652;24.906;2022-11-11T05:25:10;100294.66;;;9.62;100.00
7962;BME280;4026;43.652;24.906;2022-11-11T05:27:52;100296.19;;;9.66;100.00
7962;BME280;4026;43.652;24.906;2022-11-11T05:30:20;100301.28;;;9.66;100.00
7962;BME280;4026;43.652;24.906;2022-11-11T05:32:47;100312.19;;;9.69;100.00
7962;BME280;4026;43.652;24.906;2022-11-11T05:35:15;100314.72;;;9.69;100.00
7962;BME280;4026;43.652;24.906;2022-11-11T05:37:43;100316.47;;;9.69;100.00
7962;BME280;4026;43.652;24.906;2022-11-11T05:40:31;100324.03;;;9.70;100.00
7962;BME280;4026;43.652;24.906;2022-11-11T05:42:58;100325.66;;;9.71;100.00
7962;BME280;4026;43.652;24.906;2022-11-11T05:45:24;100339.06;;;9.77;100.00
7962;BME280;4026;43.652;24.906;2022-11-11T05:47:51;100339.88;;;9.77;100.00
7962;BME280;4026;43.652;24.906;2022-11-11T05:50:18;100353.66;;;9.74;100.00
7962;BME280;4026;43.652;24.906;2022-11-11T05:52:48;100345.22;;;9.72;100.00
7962;BME280;4026;43.652;24.906;2022-11-11T05:55:15;100351.75;;;9.78;100.00
7962;BME280;4026;43.652;24.906;2022-11-11T05:57:42;100355.91;;;9.81;100.00
7962;BME280;4026;43.652;24.906;2022-11-11T06:00:10;100366.13;;;9.81;100.00
7962;BME280;4026;43.652;24.906;2022-11-11T06:02:37;100362.50;;;9.85;100.00
7962;BME280;4026;43.652;24.906;2022-11-11T06:05:04;100368.22;;;9.90;100.00
7962;BME280;4026;43.652;24.906;2022-11-11T06:07:32;100377.38;;;9.94;100.00
7962;BME280;4026;43.652;24.906;2022-11-11T06:10:00;100375.56;;;9.96;100.00
7962;BME280;4026;43.652;24.906;2022-11-11T06:12:41;100374.28;;;10.05;100.00
7962;BME280;4026;43.652;24.906;2022-11-11T06:15:22;100381.72;;;10.09;100.00
7962;BME280;4026;43.652;24.906;2022-11-11T06:17:48;100390.28;;;10.08;100.00
7962;BME280;4026;43.652;24.906;2022-11-11T06:20:15;100390.91;;;10.13;100.00
7962;BME280;4026;43.652;24.906;2022-11-11T06:22:42;100395.94;;;10.15;100.00
7962;BME280;4026;43.652;24.906;2022-11-11T06:25:23;100394.59;;;10.08;100.00
7962;BME280;4026;43.652;24.906;2022-11-11T06:28:08;100408.94;;;10.10;100.00
7962;BME280;4026;43.652;24.906;2022-11-11T06:30:35;100413.91;;;10.13;100.00
7962;BME280;4026;43.652;24.906;2022-11-11T06:33:01;100416.75;;;10.07;100.00
7962;BME280;4026;43.652;24.906;2022-11-11T06:35:28;100434.50;;;10.10;100.00
7962;BME280;4026;43.652;24.906;2022-11-11T06:37:55;100443.81;;;10.11;100.00
7962;BME280;4026;43.652;24.906;2022-11-11T06:40:23;100443.03;;;10.09;100.00
7962;BME280;4026;43.652;24.906;2022-11-11T06:42:50;100447.44;;;10.07;100.00
7962;BME280;4026;43.652;24.906;2022-11-11T06:45:17;100444.88;;;10.07;100.00
7962;BME280;4026;43.652;24.906;2022-11-11T06:47:44;100457.03;;;10.02;100.00
7962;BME280;4026;43.652;24.906;2022-11-11T06:50:10;100463.78;;;10.03;100.00
7962;BME280;4026;43.652;24.906;2022-11-11T06:52:37;100459.44;;;10.05;100.00
7962;BME280;4026;43.652;24.906;2022-11-11T06:55:05;100466.34;;;10.03;100.00
7962;BME280;4026;43.652;24.906;2022-11-11T06:57:33;100472.66;;;9.96;100.00
7962;BME280;4026;43.652;24.906;2022-11-11T07:00:00;100480.53;;;9.91;100.00
7962;BME280;4026;43.652;24.906;2022-11-11T07:02:27;100481.66;;;9.86;100.00
7962;BME280;4026;43.652;24.906;2022-11-11T07:04:54;100480.16;;;9.82;100.00
7962;BME280;4026;43.652;24.906;2022-11-11T07:07:21;100480.75;;;9.87;100.00
7962;BME280;4026;43.652;24.906;2022-11-11T07:09:48;100488.81;;;9.96;100.00
7962;BME280;4026;43.652;24.906;2022-11-11T07:12:15;100495.63;;;9.79;100.00
7962;BME280;4026;43.652;24.906;2022-11-11T07:14:43;100501.19;;;9.87;100.00
7962;BME280;4026;43.652;24.906;2022-11-11T07:17:10;100504.78;;;9.83;100.00
7962;BME280;4026;43.652;24.906;2022-11-11T07:19:36;100502.06;;;9.86;100.00
7962;BME280;4026;43.652;24.906;2022-11-11T07:22:03;100510.16;;;9.77;100.00
7962;BME280;4026;43.652;24.906;2022-11-11T07:24:30;100517.09;;;9.74;100.00
7962;BME280;4026;43.652;24.906;2022-11-11T07:26:57;100516.53;;;9.87;100.00
7962;BME280;4026;43.652;24.906;2022-11-11T07:29:26;100520.09;;;9.83;100.00
7962;BME280;4026;43.652;24.906;2022-11-11T07:31:55;100526.94;;;9.82;100.00
7962;BME280;4026;43.652;24.906;2022-11-11T07:34:22;100538.88;;;9.82;100.00
7962;BME280;4026;43.652;24.906;2022-11-11T07:36:48;100544.19;;;9.96;100.00
7962;BME280;4026;43.652;24.906;2022-11-11T07:39:15;100539.50;;;9.87;100.00
7962;BME280;4026;43.652;24.906;2022-11-11T07:41:42;100544.06;;;9.99;100.00
7962;BME280;4026;43.652;24.906;2022-11-11T07:44:09;100540.72;;;9.97;100.00
7962;BME280;4026;43.652;24.906;2022-11-11T07:46:35;100549.63;;;10.07;100.00
7962;BME280;4026;43.652;24.906;2022-11-11T07:49:04;100547.31;;;10.20;100.00
7962;BME280;4026;43.652;24.906;2022-11-11T07:51:30;100551.22;;;10.29;100.00
7962;BME280;4026;43.652;24.906;2022-11-11T07:53:57;100553.56;;;10.33;100.00
7962;BME280;4026;43.652;24.906;2022-11-11T07:56:24;100557.41;;;10.42;100.00
7962;BME280;4026;43.652;24.906;2022-11-11T07:58:51;100563.13;;;10.47;100.00
7962;BME280;4026;43.652;24.906;2022-11-11T08:01:18;100555.31;;;10.50;100.00
7962;BME280;4026;43.652;24.906;2022-11-11T08:03:45;100566.50;;;10.48;100.00
7962;BME280;4026;43.652;24.906;2022-11-11T08:06:17;100557.41;;;10.42;100.00
7962;BME280;4026;43.652;24.906;2022-11-11T08:08:44;100551.81;;;10.34;100.00
7962;BME280;4026;43.652;24.906;2022-11-11T08:11:11;100546.50;;;10.19;100.00
7962;BME280;4026;43.652;24.906;2022-11-11T08:13:38;100551.91;;;10.13;100.00
7962;BME280;4026;43.652;24.906;2022-11-11T08:16:09;100553.84;;;10.27;100.00
7962;BME280;4026;43.652;24.906;2022-11-11T08:18:36;100551.47;;;10.23;100.00
7962;BME280;4026;43.652;24.906;2022-11-11T08:21:04;100560.78;;;10.24;100.00
7962;BME280;4026;43.652;24.906;2022-11-11T08:23:32;100570.94;;;10.25;100.00
7962;BME280;4026;43.652;24.906;2022-11-11T08:25:59;100563.09;;;10.30;100.00
7962;BME280;4026;43.652;24.906;2022-11-11T08:28:27;100572.00;;;10.21;100.00
7962;BME280;4026;43.652;24.906;2022-11-11T08:30:56;100566.25;;;10.35;100.00
7962;BME280;4026;43.652;24.906;2022-11-11T08:33:24;100575.16;;;10.26;100.00
7962;BME280;4026;43.652;24.906;2022-11-11T08:35:51;100578.97;;;10.36;100.00
7962;BME280;4026;43.652;24.906;2022-11-11T08:38:19;100581.06;;;10.28;100.00
7962;BME280;4026;43.652;24.906;2022-11-11T08:40:47;100587.00;;;10.29;100.00
7962;BME280;4026;43.652;24.906;2022-11-11T08:43:14;100591.66;;;10.38;100.00
7962;BME280;4026;43.652;24.906;2022-11-11T08:45:41;100584.00;;;10.38;100.00
7962;BME280;4026;43.652;24.906;2022-11-11T08:48:08;100584.22;;;10.33;100.00
7962;BME280;4026;43.652;24.906;2022-11-11T08:50:35;100594.31;;;10.17;100.00
7962;BME280;4026;43.652;24.906;2022-11-11T08:53:02;100593.91;;;10.27;100.00
7962;BME280;4026;43.652;24.906;2022-11-11T08:55:29;100603.66;;;10.18;100.00
7962;BME280;4026;43.652;24.906;2022-11-11T08:57:58;100604.22;;;10.24;100.00
7962;BME280;4026;43.652;24.906;2022-11-11T09:00:25;100606.25;;;10.17;100.00
7962;BME280;4026;43.652;24.906;2022-11-11T09:02:52;100604.53;;;10.17;100.00
7962;BME280;4026;43.652;24.906;2022-11-11T09:05:20;100601.47;;;10.09;100.00
7962;BME280;4026;43.652;24.906;2022-11-11T09:07:47;100611.16;;;10.22;100.00
7962;BME280;4026;43.652;24.906;2022-11-11T09:10:14;100619.56;;;10.24;100.00
7962;BME280;4026;43.652;24.906;2022-11-11T09:12:40;100612.19;;;10.17;100.00
7962;BME280;4026;43.652;24.906;2022-11-11T09:15:09;100615.78;;;10.13;100.00
7962;BME280;4026;43.652;24.906;2022-11-11T09:17:36;100623.19;;;10.19;100.00
7962;BME280;4026;43.652;24.906;2022-11-11T09:20:03;100625.09;;;10.14;100.00
7962;BME280;4026;43.652;24.906;2022-11-11T09:22:30;100621.81;;;9.93;100.00
7962;BME280;4026;43.652;24.906;2022-11-11T09:24:57;100625.09;;;10.14;100.00
7962;BME280;4026;43.652;24.906;2022-11-11T09:27:24;100629.75;;;10.25;100.00
7962;BME280;4026;43.652;24.906;2022-11-11T09:29:50;100626.88;;;10.33;100.00
7962;BME280;4026;43.652;24.906;2022-11-11T09:32:18;100627.91;;;10.29;100.00
7962;BME280;4026;43.652;24.906;2022-11-11T09:34:45;100627.59;;;10.35;100.00
7962;BME280;4026;43.652;24.906;2022-11-11T09:37:12;100631.22;;;10.31;100.00
7962;BME280;4026;43.652;24.906;2022-11-11T09:39:39;100630.41;;;10.30;100.00
7962;BME280;4026;43.652;24.906;2022-11-11T09:42:10;100624.97;;;10.17;100.00
7962;BME280;4026;43.652;24.906;2022-11-11T09:45:08;100624.00;;;10.20;100.00
7962;BME280;4026;43.652;24.906;2022-11-11T09:47:45;100618.06;;;10.19;100.00
7962;BME280;4026;43.652;24.906;2022-11-11T09:50:15;100625.19;;;10.13;100.00
7962;BME280;4026;43.652;24.906;2022-11-11T09:52:46;100616.56;;;10.15;100.00
7962;BME280;4026;43.652;24.906;2022-11-11T09:55:18;100627.31;;;10.03;100.00
7962;BME280;4026;43.652;24.906;2022-11-11T09:57:50;100621.88;;;10.11;100.00
7962;BME280;4026;43.652;24.906;2022-11-11T10:00:21;100620.97;;;10.12;100.00
7962;BME280;4026;43.652;24.906;2022-11-11T10:02:52;100623.75;;;10.07;100.00
7962;BME280;4026;43.652;24.906;2022-11-11T10:05:23;100627.31;;;10.03;100.00
7962;BME280;4026;43.652;24.906;2022-11-11T10:07:53;100625.63;;;10.04;100.00
7962;BME280;4026;43.652;24.906;2022-11-11T10:10:28;100631.63;;;10.22;100.00
7962;BME280;4026;43.652;24.906;2022-11-11T10:12:58;100632.88;;;10.13;100.00
7962;BME280;4026;43.652;24.906;2022-11-11T10:15:29;100633.69;;;10.13;100.00
7962;BME280;4026;43.652;24.906;2022-11-11T10:18:10;100635.19;;;10.17;100.00
7962;BME280;4026;43.652;24.906;2022-11-11T10:20:41;100630.50;;;10.08;100.00
7962;BME280;4026;43.652;24.906;2022-11-11T10:23:12;100639.91;;;10.08;100.00
7962;BME280;4026;43.652;24.906;2022-11-11T10:25:44;100638.31;;;10.05;100.00
7962;BME280;4026;43.652;24.906;2022-11-11T10:28:16;100629.13;;;10.01;100.00
7962;BME280;4026;43.652;24.906;2022-11-11T10:30:45;100637.25;;;10.09;100.00
7962;BME280;4026;43.652;24.906;2022-11-11T10:33:18;100632.50;;;10.20;100.00
7962;BME280;4026;43.652;24.906;2022-11-11T10:35:49;100628.72;;;10.10;100.00
7962;BME280;4026;43.652;24.906;2022-11-11T10:38:29;100627.59;;;9.97;100.00
7962;BME280;4026;43.652;24.906;2022-11-11T10:41:04;100622.91;;;9.88;100.00
7962;BME280;4026;43.652;24.906;2022-11-11T10:43:34;100625.69;;;10.02;100.00
7962;BME280;4026;43.652;24.906;2022-11-11T10:46:04;100617.59;;;9.92;100.00
7962;BME280;4026;43.652;24.906;2022-11-11T10:48:41;100620.34;;;9.88;100.00
7962;BME280;4026;43.652;24.906;2022-11-11T10:51:11;100622.91;;;9.88;100.00
7962;BME280;4026;43.652;24.906;2022-11-11T10:53:43;100618.91;;;9.82;100.00
7962;BME280;4026;43.652;24.906;2022-11-11T10:56:17;100623.50;;;9.74;100.00
7962;BME280;4026;43.652;24.906;2022-11-11T10:58:50;100619.38;;;9.71;100.00
7962;BME280;4026;43.652;24.906;2022-11-11T11:01:24;100621.41;;;9.84;100.00
7962;BME280;4026;43.652;24.906;2022-11-11T11:03:59;100616.56;;;9.78;100.00
7962;BME280;4026;43.652;24.906;2022-11-11T11:06:31;100617.53;;;9.75;100.00
7962;BME280;4026;43.652;24.906;2022-11-11T11:09:02;100613.78;;;9.82;100.00
7962;BME280;4026;43.652;24.906;2022-11-11T11:11:35;100617.59;;;9.73;100.00
7962;BME280;4026;43.652;24.906;2022-11-11T11:14:09;100622.09;;;9.87;100.00
7962;BME280;4026;43.652;24.906;2022-11-11T11:16:45;100616.56;;;9.78;100.00
7962;BME280;4026;43.652;24.906;2022-11-11T11:19:20;100611.03;;;9.87;100.00
7962;BME280;4026;43.652;24.906;2022-11-11T11:21:53;100614.63;;;9.83;100.00
7962;BME280;4026;43.652;24.906;2022-11-11T11:24:22;100613.88;;;9.81;100.00
7962;BME280;4026;43.652;24.906;2022-11-11T11:26:51;100617.38;;;9.97;100.00
7962;BME280;4026;43.652;24.906;2022-11-11T11:29:29;100615.59;;;9.99;100.00
7962;BME280;4026;43.652;24.906;2022-11-11T11:32:11;100609.56;;;10.00;100.00
7962;BME280;4026;43.652;24.906;2022-11-11T11:34:45;100607.31;;;9.94;100.00
7962;BME280;4026;43.652;24.906;2022-11-11T11:37:12;100611.78;;;9.89;100.00
7962;BME280;4026;43.652;24.906;2022-11-11T11:39:39;100617.13;;;9.84;100.00
7962;BME280;4026;43.652;24.906;2022-11-11T11:42:07;100615.38;;;9.85;100.00
7962;BME280;4026;43.652;24.906;2022-11-11T11:44:35;100612.16;;;9.81;100.00
7962;BME280;4026;43.652;24.906;2022-11-11T11:47:11;100618.06;;;9.82;100.00
7962;BME280;4026;43.652;24.906;2022-11-11T11:49:58;100613.19;;;9.96;100.00
7962;BME280;4026;43.652;24.906;2022-11-11T11:52:34;100621.63;;;9.98;100.00
7962;BME280;4026;43.652;24.906;2022-11-11T11:55:06;100621.13;;;9.90;100.00
7962;BME280;4026;43.652;24.906;2022-11-11T11:57:48;100625.81;;;9.99;100.00
7962;BME280;4026;43.652;24.906;2022-11-11T12:00:19;100619.34;;;9.92;100.00
7962;BME280;4026;43.652;24.906;2022-11-11T12:05:47;100626.22;;;9.90;100.00
7962;BME280;4026;43.652;24.906;2022-11-11T12:08:27;100629.56;;;9.92;100.00
7962;BME280;4026;43.652;24.906;2022-11-11T12:11:02;100632.56;;;10.00;100.00
7962;BME280;4026;43.652;24.906;2022-11-11T12:13:39;100630.22;;;10.14;100.00
7962;BME280;4026;43.652;24.906;2022-11-11T12:16:18;100632.03;;;10.12;100.00
7962;BME280;4026;43.652;24.906;2022-11-11T12:19:09;100635.34;;;10.14;100.00
7962;BME280;4026;43.652;24.906;2022-11-11T12:21:47;100634.50;;;10.14;100.00
7962;BME280;4026;43.652;24.906;2022-11-11T12:24:30;100635.41;;;10.13;100.00
7962;BME280;4026;43.652;24.906;2022-11-11T12:27:06;100635.34;;;10.14;100.00
7962;BME280;4026;43.652;24.906;2022-11-11T12:29:47;100636.16;;;10.15;100.00
7962;BME280;4026;43.652;24.906;2022-11-11T12:32:38;100641.59;;;10.28;100.00
7962;BME280;4026;43.652;24.906;2022-11-11T12:35:25;100641.59;;;10.28;100.00
7962;BME280;4026;43.652;24.906;2022-11-11T12:38:05;100643.22;;;10.29;100.00
7962;BME280;4026;43.652;24.906;2022-11-11T12:40:44;100641.31;;;10.34;100.00
7962;BME280;4026;43.652;24.906;2022-11-11T12:43:20;100628.84;;;10.26;100.00
7962;BME280;4026;43.652;24.906;2022-11-11T12:45:59;100645.44;;;10.36;100.00
7962;BME280;4026;43.652;24.906;2022-11-11T12:48:46;100638.81;;;10.32;100.00
7962;BME280;4026;43.652;24.906;2022-11-11T12:51:20;100640.03;;;10.24;100.00
7962;BME280;4026;43.652;24.906;2022-11-11T12:54:01;100639.44;;;10.18;100.00
7962;BME280;4026;43.652;24.906;2022-11-11T12:56:33;100639.16;;;10.25;100.00
7962;BME280;4026;43.652;24.906;2022-11-11T12:59:09;100638.56;;;10.18;100.00
7962;BME280;4026;43.652;24.906;2022-11-11T13:01:50;100632.25;;;10.08;100.00
7962;BME280;4026;43.652;24.906;2022-11-11T13:04:39;100641.56;;;10.09;100.00
7962;BME280;4026;43.652;24.906;2022-11-11T13:07:30;100639.38;;;10.01;100.00
7962;BME280;4026;43.652;24.906;2022-11-11T13:10:17;100641.09;;;10.01;100.00
7962;BME280;4026;43.652;24.906;2022-11-11T13:12:52;100637.09;;;9.95;100.00
7962;BME280;4026;43.652;24.906;2022-11-11T13:15:22;100635.34;;;9.95;100.00
7962;BME280;4026;43.652;24.906;2022-11-11T13:17:49;100645.16;;;10.05;100.00
7962;BME280;4026;43.652;24.906;2022-11-11T13:20:23;100645.56;;;10.14;100.00
7962;BME280;4026;43.652;24.906;2022-11-11T13:22:55;100647.63;;;10.06;100.00
7962;BME280;4026;43.652;24.906;2022-11-11T13:25:27;100640.50;;;9.94;100.00